createdAt,value
2023-01-07T00:00:36.596Z,10.3
2023-01-07T00:02:38.353Z,10.4
2023-01-07T00:06:41.826Z,10.3
2023-01-07T00:10:45.320Z,10.3
2023-01-07T00:12:47.110Z,10.3
2023-01-07T00:14:52.347Z,10.3
2023-01-07T00:16:54.111Z,10.3
2023-01-07T00:18:55.886Z,10.3
2023-01-07T00:20:57.687Z,10.3
2023-01-07T00:22:59.449Z,10.3
2023-01-07T00:25:01.183Z,10.3
2023-01-07T00:27:02.960Z,10.3
2023-01-07T00:29:08.223Z,10.3
2023-01-07T00:31:10.060Z,10.3
2023-01-07T00:33:11.720Z,10.3
2023-01-07T00:35:13.483Z,10.4
2023-01-07T00:37:15.251Z,10.4
2023-01-07T00:39:17.023Z,10.4
2023-01-07T00:41:18.789Z,10.4
2023-01-07T00:43:24.046Z,10.4
2023-01-07T00:45:25.831Z,10.5
2023-01-07T00:47:27.563Z,10.5
2023-01-07T00:48:30.201Z,10.5
2023-01-07T00:52:33.742Z,10.6
2023-01-07T00:54:35.455Z,10.6
2023-01-07T00:56:40.718Z,10.6
2023-01-07T00:58:42.728Z,10.6
2023-01-07T01:00:44.280Z,10.6
2023-01-07T01:02:46.121Z,10.6
2023-01-07T01:04:47.778Z,10.6
2023-01-07T01:06:49.540Z,10.5
2023-01-07T01:10:56.584Z,10.5
2023-01-07T01:12:58.324Z,10.5
2023-01-07T01:19:03.617Z,10.4
2023-01-07T01:21:05.390Z,10.4
2023-01-07T01:23:07.115Z,10.4
2023-01-07T01:25:12.403Z,10.3
2023-01-07T01:27:14.133Z,10.3
2023-01-07T01:29:15.923Z,10.3
2023-01-07T01:31:17.734Z,10.3
2023-01-07T01:33:19.396Z,10.3
2023-01-07T01:35:21.181Z,10.2
2023-01-07T01:37:22.949Z,10.2
2023-01-07T01:39:28.468Z,10.3
2023-01-07T01:41:30.074Z,10.2
2023-01-07T01:43:36.826Z,10.3
2023-01-07T01:46:36.187Z,10.2
2023-01-07T01:48:37.834Z,10.2
2023-01-07T01:52:48.497Z,10.3
2023-01-07T01:54:48.249Z,10.2
2023-01-07T01:56:50.028Z,10.2
2023-01-07T01:58:51.747Z,10.2
2023-01-07T02:00:53.588Z,10.1
2023-01-07T02:02:55.239Z,10.1
2023-01-07T02:04:57.015Z,10.1
2023-01-07T02:07:02.254Z,10.3
2023-01-07T02:09:04.032Z,10.2
2023-01-07T02:11:05.770Z,10.2
2023-01-07T02:13:07.544Z,10.1
2023-01-07T02:17:11.087Z,10.1
2023-01-07T02:19:12.815Z,10.2
2023-01-07T02:21:18.044Z,10.2
2023-01-07T02:25:21.584Z,10.1
2023-01-07T02:27:23.345Z,10.2
2023-01-07T02:29:25.098Z,10.2
2023-01-07T02:31:26.908Z,10.2
2023-01-07T02:33:28.595Z,10.2
2023-01-07T02:35:33.885Z,10.3
2023-01-07T02:37:35.651Z,10.2
2023-01-07T02:39:37.408Z,10.3
2023-01-07T02:40:39.999Z,10.4
2023-01-07T02:42:41.779Z,10.3
2023-01-07T02:44:43.517Z,10.4
2023-01-07T02:46:45.267Z,10.3
2023-01-07T02:48:50.507Z,10.3
2023-01-07T02:50:52.313Z,10.3
2023-01-07T02:52:54.041Z,10.3
2023-01-07T02:54:55.816Z,10.3
2023-01-07T02:56:57.587Z,10.4
2023-01-07T02:58:59.320Z,10.4
2023-01-07T03:01:01.285Z,10.4
2023-01-07T03:03:06.325Z,10.4
2023-01-07T03:05:08.099Z,10.4
2023-01-07T03:07:09.843Z,10.4
2023-01-07T03:09:11.599Z,10.3
2023-01-07T03:11:13.344Z,10.3
2023-01-07T03:13:15.136Z,10.3
2023-01-07T03:15:16.874Z,10.2
2023-01-07T03:17:22.142Z,10.3
2023-01-07T03:19:23.908Z,10.3
2023-01-07T03:21:25.659Z,10.3
2023-01-07T03:27:30.987Z,10.2
2023-01-07T03:29:32.707Z,10.1
2023-01-07T03:35:41.513Z,10.2
2023-01-07T03:38:02.943Z,10.1
2023-01-07T03:40:04.686Z,10.2
2023-01-07T03:42:06.470Z,10.1
2023-01-07T03:44:11.726Z,10.2
2023-01-07T03:46:13.541Z,10.1
2023-01-07T03:48:15.239Z,10.1
2023-01-07T03:50:17.131Z,10.1
2023-01-07T03:52:18.955Z,10.1
2023-01-07T03:54:20.539Z,10.1
2023-01-07T03:56:22.274Z,10.1
2023-01-07T03:58:27.510Z,10
2023-01-07T04:00:29.278Z,10
2023-01-07T04:02:31.059Z,9.9
2023-01-07T04:04:32.846Z,9.9
2023-01-07T04:06:34.554Z,9.9
2023-01-07T04:08:36.315Z,10
2023-01-07T04:10:38.039Z,9.9
2023-01-07T04:12:43.319Z,9.9
2023-01-07T04:14:45.032Z,9.9
2023-01-07T04:16:46.821Z,9.9
2023-01-07T04:18:48.559Z,9.8
2023-01-07T04:22:52.027Z,9.7
2023-01-07T04:31:02.484Z,9.6
2023-01-07T04:38:10.329Z,9.6
2023-01-07T04:40:15.570Z,9.5
2023-01-07T04:42:17.298Z,9.5
2023-01-07T04:44:19.040Z,9.5
2023-01-07T04:46:20.856Z,9.6
2023-01-07T04:48:22.472Z,9.6
2023-01-07T04:50:24.227Z,9.6
2023-01-07T04:54:31.186Z,9.6
2023-01-07T04:56:32.936Z,9.6
2023-01-07T04:58:34.696Z,9.4
2023-01-07T05:00:36.434Z,9.4
2023-01-07T05:02:38.182Z,9.5
2023-01-07T05:04:40.007Z,9.4
2023-01-07T05:06:41.635Z,9.5
2023-01-07T05:10:48.605Z,9.4
2023-01-07T05:14:52.094Z,9.5
2023-01-07T05:16:53.900Z,9.4
2023-01-07T05:18:55.575Z,9.4
2023-01-07T05:20:57.304Z,9.5
2023-01-07T05:23:02.541Z,9.3
2023-01-07T05:25:04.302Z,9.4
2023-01-07T05:28:08.683Z,9.3
2023-01-07T05:30:10.404Z,9.3
2023-01-07T05:32:12.145Z,9.2
2023-01-07T05:34:13.858Z,9.1
2023-01-07T05:36:19.151Z,9.2
2023-01-07T05:44:26.079Z,9.3
2023-01-07T05:46:27.865Z,9.3
2023-01-07T05:48:29.566Z,9.4
2023-01-07T05:50:34.785Z,9.3
2023-01-07T05:58:41.900Z,9.4
2023-01-07T06:12:57.772Z,9.7
2023-01-07T06:17:01.049Z,9.8
2023-01-07T06:19:06.222Z,9.8
2023-01-07T06:24:12.298Z,9.8
2023-01-07T06:26:14.012Z,9.8
2023-01-07T06:28:15.723Z,9.8
2023-01-07T06:30:17.506Z,9.8
2023-01-07T06:32:22.682Z,9.8
2023-01-07T06:34:24.411Z,9.8
2023-01-07T06:36:26.127Z,9.7
2023-01-07T06:38:27.856Z,9.7
2023-01-07T06:40:29.594Z,9.8
2023-01-07T06:42:31.362Z,9.8
2023-01-07T06:46:38.360Z,9.8
2023-01-07T06:48:39.972Z,9.8
2023-01-07T06:50:41.715Z,9.8
2023-01-07T06:52:43.491Z,9.8
2023-01-07T06:54:47.574Z,9.7
2023-01-07T06:56:46.946Z,9.7
2023-01-07T06:58:48.708Z,9.6
2023-01-07T07:00:53.979Z,9.6
2023-01-07T07:02:55.725Z,9.6
2023-01-07T07:04:57.460Z,9.7
2023-01-07T07:09:00.879Z,9.6
2023-01-07T07:13:04.380Z,9.4
2023-01-07T07:15:09.603Z,9.6
2023-01-07T07:17:11.377Z,9.6
2023-01-07T07:19:13.116Z,9.6
2023-01-07T07:21:17.528Z,9.6
2023-01-07T07:23:19.304Z,9.6
2023-01-07T07:25:21.000Z,9.7
2023-01-07T07:27:25.434Z,9.6
2023-01-07T07:29:27.199Z,9.7
2023-01-07T07:31:28.945Z,9.7
2023-01-07T07:33:33.307Z,9.7
2023-01-07T07:35:35.067Z,9.7
2023-01-07T07:39:41.219Z,9.9
2023-01-07T07:41:42.977Z,9.9
2023-01-07T07:47:50.913Z,9.9
2023-01-07T07:49:52.675Z,9.9
2023-01-07T07:52:16.552Z,10
2023-01-07T07:54:18.315Z,9.9
2023-01-07T07:58:25.334Z,10.1
2023-01-07T08:00:27.114Z,10
2023-01-07T08:04:30.564Z,10.1
2023-01-07T08:06:32.330Z,10.1
2023-01-07T08:08:34.056Z,10.1
2023-01-07T08:10:35.816Z,10.2
2023-01-07T08:12:41.066Z,10.2
2023-01-07T08:14:43.921Z,10.1
2023-01-07T08:16:44.574Z,10.2
2023-01-07T08:18:46.372Z,10.2
2023-01-07T08:20:48.141Z,10.2
2023-01-07T08:22:49.829Z,10.2
2023-01-07T08:24:51.581Z,10.2
2023-01-07T08:26:56.824Z,10.2
2023-01-07T08:31:00.326Z,10.3
2023-01-07T08:33:02.090Z,10.3
2023-01-07T08:35:03.843Z,10.3
2023-01-07T08:37:05.634Z,10.3
2023-01-07T08:39:07.347Z,10.4
2023-01-07T08:41:12.623Z,10.3
2023-01-07T08:43:14.375Z,10.3
2023-01-07T08:45:16.178Z,10.2
2023-01-07T08:50:22.219Z,10.4
2023-01-07T08:52:23.970Z,10.5
2023-01-07T08:56:33.779Z,10.6
2023-01-07T08:58:32.676Z,10.6
2023-01-07T09:00:34.477Z,10.7
2023-01-07T09:04:37.912Z,10.6
2023-01-07T09:06:39.693Z,10.6
2023-01-07T09:08:44.903Z,10.7
2023-01-07T09:12:48.459Z,10.7
2023-01-07T09:14:50.266Z,10.7
2023-01-07T09:16:53.347Z,10.7
2023-01-07T09:18:59.033Z,10.7
2023-01-07T09:20:55.511Z,10.7
2023-01-07T09:23:00.873Z,10.8
2023-01-07T09:25:02.582Z,10.7
2023-01-07T09:27:04.304Z,10.8
2023-01-07T09:29:06.075Z,10.8
2023-01-07T09:31:07.845Z,10.9
2023-01-07T09:33:09.628Z,10.9
2023-01-07T09:35:11.376Z,11
2023-01-07T09:39:18.410Z,11
2023-01-07T09:42:22.838Z,11
2023-01-07T09:44:24.664Z,11
2023-01-07T09:46:26.359Z,11
2023-01-07T09:48:28.127Z,11
2023-01-07T09:50:33.396Z,11
2023-01-07T09:52:35.370Z,11
2023-01-07T09:54:37.997Z,10.9
2023-01-07T09:56:43.163Z,11
2023-01-07T09:58:40.480Z,11
2023-01-07T10:00:42.251Z,11
2023-01-07T10:02:44.080Z,11
2023-01-07T10:04:49.391Z,11
2023-01-07T10:06:52.858Z,11.1
2023-01-07T10:08:52.915Z,11
2023-01-07T10:10:55.090Z,11.1
2023-01-07T10:14:58.161Z,11.2
2023-01-07T10:19:05.238Z,11.4
2023-01-07T10:21:07.006Z,11.5
2023-01-07T10:27:12.304Z,11.3
2023-01-07T10:29:14.115Z,11.4
2023-01-07T10:33:21.076Z,11.3
2023-01-07T10:35:22.804Z,11.4
2023-01-07T10:37:24.626Z,11.5
2023-01-07T10:40:31.632Z,11.4
2023-01-07T10:44:32.482Z,11.4
2023-01-07T10:46:37.768Z,11.4
2023-01-07T10:50:41.240Z,11.5
2023-01-07T10:52:43.025Z,11.4
2023-01-07T10:56:46.580Z,11.6
2023-01-07T10:58:48.328Z,11.5
2023-01-07T11:02:55.530Z,11.5
2023-01-07T11:04:57.188Z,11.5
2023-01-07T11:06:58.948Z,11.7
2023-01-07T11:09:00.757Z,12.4
2023-01-07T11:11:02.502Z,13.3
2023-01-07T11:15:09.690Z,13.3
2023-01-07T11:17:14.464Z,13.5
2023-01-07T11:21:43.144Z,13.7
2023-01-07T11:23:16.669Z,13.8
2023-01-07T11:25:18.425Z,13.7
2023-01-07T11:27:20.190Z,13.6
2023-01-07T11:29:25.448Z,13.6
2023-01-07T11:31:27.263Z,13.6
2023-01-07T11:35:52.994Z,13.9
2023-01-07T11:39:56.618Z,13.5
2023-01-07T11:42:01.895Z,14.4
2023-01-07T11:44:03.671Z,14.4
2023-01-07T11:46:19.345Z,13.3
2023-01-07T11:48:07.240Z,13.1
2023-01-07T11:50:08.973Z,13
2023-01-07T11:52:10.779Z,12.6
2023-01-07T11:54:13.673Z,12.7
2023-01-07T11:56:23.441Z,12.2
2023-01-07T11:58:30.056Z,12.2
2023-01-07T12:00:21.381Z,12.4
2023-01-07T12:02:23.309Z,12.4
2023-01-07T12:04:24.932Z,12.9
2023-01-07T12:06:26.711Z,12.8
2023-01-07T12:08:28.508Z,13
2023-01-07T12:10:33.778Z,12.9
2023-01-07T12:18:40.892Z,12.6
2023-01-07T12:20:42.689Z,12.8
2023-01-07T12:22:44.541Z,12.7
2023-01-07T12:28:53.317Z,12.6
2023-01-07T12:29:55.946Z,12.8
2023-01-07T12:31:57.736Z,12.8
2023-01-07T12:33:59.513Z,12.9
2023-01-07T12:36:01.510Z,12.9
2023-01-07T12:38:06.938Z,12.6
2023-01-07T12:40:08.352Z,12.8
2023-01-07T12:42:10.177Z,12.9
2023-01-07T12:44:11.906Z,12.9
2023-01-07T12:46:13.799Z,12.6
2023-01-07T12:48:15.503Z,12.5
2023-01-07T12:50:17.263Z,12.4
2023-01-07T12:52:22.528Z,12.3
2023-01-07T12:54:24.305Z,12.4
2023-01-07T12:56:26.139Z,12.5
2023-01-07T12:58:27.867Z,12.4
2023-01-07T13:00:29.620Z,12.3
2023-01-07T13:02:31.399Z,12.2
2023-01-07T13:04:33.233Z,12.2
2023-01-07T13:06:38.449Z,12.1
2023-01-07T13:08:40.223Z,12.1
2023-01-07T13:10:41.979Z,12.1
2023-01-07T13:12:43.747Z,12.1
2023-01-07T13:14:45.573Z,12.1
2023-01-07T13:16:49.909Z,12.2
2023-01-07T13:18:49.084Z,12.2
2023-01-07T13:20:54.348Z,12.5
2023-01-07T13:22:56.116Z,12.6
2023-01-07T13:24:57.878Z,12.4
2023-01-07T13:26:00.527Z,12.5
2023-01-07T13:28:02.327Z,12.4
2023-01-07T13:30:04.071Z,12.3
2023-01-07T13:34:12.743Z,12.8
2023-01-07T13:36:14.622Z,12.8
2023-01-07T13:44:21.549Z,12.2
2023-01-07T13:46:23.389Z,12.3
2023-01-07T13:54:33.905Z,11.8
2023-01-07T13:56:35.676Z,11.8
2023-01-07T14:02:44.835Z,11.5
2023-01-07T14:04:57.883Z,11.4
2023-01-07T14:06:48.015Z,11.5
2023-01-07T14:08:49.767Z,11.6
2023-01-07T14:10:51.530Z,11.5
2023-01-07T14:12:53.379Z,11.4
2023-01-07T14:14:55.144Z,11.4
2023-01-07T14:17:00.409Z,11.3
2023-01-07T14:19:02.169Z,11.3
2023-01-07T14:21:03.981Z,11.3
2023-01-07T14:22:06.625Z,11.3
2023-01-07T14:28:11.955Z,11.2
2023-01-07T14:30:17.302Z,11.1
2023-01-07T14:32:19.016Z,11.1
2023-01-07T14:34:20.777Z,11.1
2023-01-07T14:36:22.559Z,11
2023-01-07T14:38:24.355Z,11
2023-01-07T14:40:26.124Z,11
2023-01-07T14:42:27.997Z,11
2023-01-07T14:44:33.115Z,10.9
2023-01-07T14:46:34.931Z,10.9
2023-01-07T14:48:36.666Z,10.8
2023-01-07T14:50:38.448Z,10.8
2023-01-07T14:54:41.983Z,10.8
2023-01-07T14:56:43.792Z,10.7
2023-01-07T14:58:49.033Z,10.6
2023-01-07T15:00:50.953Z,10.6
2023-01-07T15:04:54.337Z,10.5
2023-01-07T15:06:56.091Z,10.5
2023-01-07T15:08:57.899Z,10.4
2023-01-07T15:10:59.683Z,10.4
2023-01-07T15:15:06.751Z,10.4
2023-01-07T15:17:08.457Z,10.3
2023-01-07T15:19:31.815Z,10.3
2023-01-07T15:21:33.579Z,10.3
2023-01-07T15:23:35.328Z,10.2
2023-01-07T15:25:40.577Z,10.2
2023-01-07T15:27:42.355Z,10.2
2023-01-07T15:29:44.107Z,10.1
2023-01-07T15:31:45.976Z,10.3
2023-01-07T15:33:47.636Z,10.4
2023-01-07T15:37:51.184Z,10.5
2023-01-07T15:43:59.912Z,10.5
2023-01-07T15:46:01.690Z,10.5
2023-01-07T15:48:03.476Z,10.5
2023-01-07T15:52:07.249Z,10.5
2023-01-07T15:54:13.631Z,10.4
2023-01-07T16:00:17.486Z,10.5
2023-01-07T16:02:19.302Z,10.4
2023-01-07T16:08:28.066Z,10.3
2023-01-07T16:10:29.827Z,10.3
2023-01-07T16:12:31.583Z,10.5
2023-01-07T16:17:37.787Z,10.3
2023-01-07T16:19:39.536Z,10.4
2023-01-07T16:23:46.564Z,10.4
2023-01-07T16:25:48.439Z,10.4
2023-01-07T16:27:50.127Z,10.4
2023-01-07T16:29:51.935Z,10.4
2023-01-07T16:33:55.501Z,10.4
2023-01-07T16:36:00.835Z,10.5
2023-01-07T16:38:02.585Z,10.4
2023-01-07T16:42:06.119Z,10.4
2023-01-07T16:44:07.888Z,10.4
2023-01-07T16:48:11.441Z,10.4
2023-01-07T16:50:16.733Z,10.4
2023-01-07T16:52:18.497Z,10.4
2023-01-07T16:54:20.301Z,10.3
2023-01-07T16:56:22.082Z,10.3
2023-01-07T17:02:27.382Z,10.3
2023-01-07T17:04:32.646Z,10.4
2023-01-07T17:06:34.451Z,10.4
2023-01-07T17:08:36.216Z,10.3
2023-01-07T17:11:40.645Z,10.3
2023-01-07T17:13:42.426Z,10.3
2023-01-07T17:17:49.466Z,10.3
2023-01-07T17:21:53.011Z,10.2
2023-01-07T17:23:54.872Z,10.1
2023-01-07T17:25:56.578Z,10.1
2023-01-07T17:27:58.363Z,10
2023-01-07T17:30:00.153Z,9.9
2023-01-07T17:34:07.195Z,9.7
2023-01-07T17:36:08.958Z,9.6
2023-01-07T17:40:12.404Z,9.3
2023-01-07T17:46:21.381Z,9.1
2023-01-07T17:48:22.913Z,9.1
2023-01-07T17:50:24.651Z,9
2023-01-07T17:52:26.506Z,9.1
2023-01-07T17:54:28.252Z,9
2023-01-07T17:56:29.982Z,9.1
2023-01-07T17:58:31.840Z,9
2023-01-07T18:00:37.159Z,9
2023-01-07T18:04:40.593Z,8.9
2023-01-07T18:09:46.695Z,8.7
2023-01-07T18:11:48.453Z,8.6
2023-01-07T18:13:53.635Z,8.7
2023-01-07T18:15:55.322Z,8.6
2023-01-07T18:17:57.111Z,8.7
2023-01-07T18:19:58.821Z,8.7
2023-01-07T18:24:02.316Z,8.6
2023-01-07T18:28:09.212Z,8.6
2023-01-07T18:30:11.048Z,8.6
2023-01-07T18:32:12.873Z,8.6
2023-01-07T18:34:14.652Z,8.6
2023-01-07T18:36:16.473Z,8.6
2023-01-07T18:40:20.145Z,8.7
2023-01-07T18:42:25.556Z,8.7
2023-01-07T18:44:27.404Z,8.7
2023-01-07T18:46:29.217Z,8.7
2023-01-07T18:48:31.013Z,8.7
2023-01-07T18:50:32.714Z,8.7
2023-01-07T18:52:34.578Z,8.7
2023-01-07T18:54:36.368Z,8.8
2023-01-07T18:56:41.759Z,8.8
2023-01-07T18:58:44.337Z,8.8
2023-01-07T19:00:45.480Z,8.8
2023-01-07T19:02:49.948Z,8.8
2023-01-07T19:04:51.722Z,8.7
2023-01-07T19:06:53.540Z,8.8
2023-01-07T19:08:58.072Z,8.8
2023-01-07T19:10:59.864Z,8.8
2023-01-07T19:13:01.700Z,8.8
2023-01-07T19:15:06.181Z,8.8
2023-01-07T19:17:08.530Z,8.9
2023-01-07T19:19:09.817Z,8.9
2023-01-07T19:24:18.956Z,8.9
2023-01-07T19:28:22.565Z,8.8
2023-01-07T19:30:27.102Z,8.9
2023-01-07T19:32:28.996Z,8.9
2023-01-07T19:34:30.697Z,8.8
2023-01-07T19:36:45.499Z,8.8
2023-01-07T19:38:37.246Z,8.8
2023-01-07T19:40:38.863Z,8.9
2023-01-07T19:42:43.253Z,8.9
2023-01-07T19:44:45.099Z,8.8
2023-01-07T19:46:46.909Z,8.9
2023-01-07T19:48:51.441Z,8.9
2023-01-07T19:50:53.260Z,8.9
2023-01-07T19:52:55.086Z,8.9
2023-01-07T19:54:59.578Z,8.9
2023-01-07T19:57:01.429Z,9
2023-01-07T19:59:03.051Z,8.9
2023-01-07T20:01:07.618Z,8.9
2023-01-07T20:03:09.236Z,9
2023-01-07T20:05:10.911Z,9
2023-01-07T20:07:15.459Z,9.1
2023-01-07T20:09:17.254Z,9.1
2023-01-07T20:11:19.068Z,9.1
2023-01-07T20:13:23.455Z,9.1
2023-01-07T20:15:25.185Z,9.1
2023-01-07T20:17:26.934Z,9.2
2023-01-07T20:19:31.314Z,9.3
2023-01-07T20:21:33.068Z,9.4
2023-01-07T20:23:34.837Z,9.4
2023-01-07T20:25:39.226Z,9.5
2023-01-07T20:27:40.951Z,9.5
2023-01-07T20:29:42.693Z,9.6
2023-01-07T20:31:47.152Z,9.6
2023-01-07T20:33:48.853Z,9.6
2023-01-07T20:35:50.568Z,9.7
2023-01-07T20:43:03.576Z,9.6
2023-01-07T20:45:05.313Z,9.8
2023-01-07T20:47:09.728Z,9.8
2023-01-07T20:49:11.444Z,9.7
2023-01-07T20:51:13.185Z,9.7
2023-01-07T20:53:17.623Z,9.8
2023-01-07T20:55:19.383Z,9.8
2023-01-07T20:57:21.114Z,9.8
2023-01-07T20:59:25.511Z,9.7
2023-01-07T21:01:27.334Z,9.8
2023-01-07T21:03:29.049Z,9.8
2023-01-07T21:07:35.114Z,9.8
2023-01-07T21:09:36.853Z,9.8
2023-01-07T21:15:44.755Z,9.8
2023-01-07T21:20:03.674Z,9.9
2023-01-07T21:22:05.445Z,9.7
2023-01-07T21:24:10.662Z,9.6
2023-01-07T21:26:12.396Z,9.6
2023-01-07T21:28:14.136Z,9.6
2023-01-07T21:30:15.890Z,9.6
2023-01-07T21:32:17.617Z,9.6
2023-01-07T21:34:19.346Z,9.6
2023-01-07T21:36:21.056Z,9.6
2023-01-07T21:40:28.034Z,9.8
2023-01-07T21:42:29.774Z,9.7
2023-01-07T21:44:31.520Z,9.6
2023-01-07T21:46:33.215Z,9.6
2023-01-07T21:48:34.971Z,9.7
2023-01-07T21:50:37.133Z,9.8
2023-01-07T21:52:41.957Z,9.8
2023-01-07T21:54:43.709Z,9.8
2023-01-07T21:56:45.472Z,9.8
2023-01-07T21:58:47.241Z,9.8
2023-01-07T22:07:14.392Z,9.9
2023-01-07T22:08:59.514Z,9.9
2023-01-07T22:12:03.871Z,10
2023-01-07T22:14:05.633Z,10
2023-01-07T22:16:07.436Z,10
2023-01-07T22:18:09.157Z,10
2023-01-07T22:20:14.392Z,9.9
2023-01-07T22:24:17.912Z,10
2023-01-07T22:26:19.682Z,10
2023-01-07T22:28:21.442Z,10
2023-01-07T22:30:23.181Z,10
2023-01-07T22:32:24.931Z,10
2023-01-07T22:34:30.193Z,10.1
2023-01-07T22:36:31.979Z,10
2023-01-07T22:38:33.752Z,10
2023-01-07T22:40:35.525Z,10.1
2023-01-07T22:42:37.257Z,10.1
2023-01-07T22:44:38.988Z,10
2023-01-07T22:46:40.764Z,10
2023-01-07T22:48:46.023Z,10
2023-01-07T22:50:47.731Z,10
2023-01-07T22:52:49.493Z,10
2023-01-07T22:54:51.261Z,10.1
2023-01-07T22:56:53.054Z,10
2023-01-07T22:58:54.786Z,10
2023-01-07T23:00:56.643Z,10
2023-01-07T23:03:01.864Z,10
2023-01-07T23:05:03.576Z,9.9
2023-01-07T23:07:05.327Z,10
2023-01-07T23:08:07.975Z,9.9
2023-01-07T23:10:09.729Z,10
2023-01-07T23:18:20.252Z,10
2023-01-07T23:20:22.018Z,9.9
2023-01-07T23:22:23.803Z,10
2023-01-07T23:24:25.549Z,10
2023-01-07T23:26:27.701Z,10
2023-01-07T23:28:29.516Z,9.9
2023-01-07T23:32:36.002Z,10
2023-01-07T23:34:37.829Z,9.9
2023-01-07T23:36:39.518Z,9.9
2023-01-07T23:40:43.286Z,10
2023-01-07T23:42:44.797Z,10
2023-01-07T23:44:50.155Z,9.9
2023-01-07T23:46:51.847Z,9.9
2023-01-07T23:48:53.551Z,9.9
2023-01-07T23:50:55.317Z,9.9
2023-01-07T23:52:57.098Z,9.9
2023-01-07T23:54:58.850Z,9.9
2023-01-07T23:59:05.873Z,9.8
